Time;durP1;ratioP1;P1;durP2;ratioP2;P2;SDS_P1;SDS_P2;PMS_P1;PMS_P2;Temp;Humidity;BMP_temperature;BMP_pressure;BME280_temperature;BME280_humidity;BME280_pressure;Samples;Min_cycle;Max_cycle;Signal;HPM_P1;HPM_P2
2023/02/09 00:00:55;;;;;;;;;;;18.80;48.60;;;;;;7787204;22;20327;-74
2023/02/09 00:03:56;;;;;;;;;;;18.80;48.60;;;;;;7786720;22;19904;-73
2023/02/09 00:06:56;;;;;;;;;;;18.80;48.70;;;;;;7759774;22;19917;-73
2023/02/09 00:09:57;;;;;;;;;;;18.80;48.60;;;;;;7786418;22;19982;-73
2023/02/09 00:16:17;;;;;;;;;;;18.80;48.70;;;;;;7785840;22;20294;-73
2023/02/09 00:19:17;;;;;;;;;;;18.80;48.50;;;;;;7786391;22;19964;-73
2023/02/09 00:22:18;;;;;;;;;;;18.80;48.60;;;;;;7786773;22;20239;-73
2023/02/09 00:25:18;;;;;;;;;;;18.80;48.70;;;;;;7785801;22;19907;-73
2023/02/09 00:28:19;;;;;;;;;;;18.80;48.60;;;;;;7786644;22;19978;-73
2023/02/09 00:31:20;;;;;;;;;;;18.80;48.60;;;;;;7785706;22;19907;-73
2023/02/09 00:34:21;;;;;;;;;;;18.80;48.70;;;;;;7786482;22;19913;-73
2023/02/09 00:37:21;;;;;;;;;;;18.80;48.70;;;;;;7786098;22;19918;-72
2023/02/09 00:40:21;;;;;;;;;;;18.80;48.70;;;;;;7786082;22;19908;-73
2023/02/09 00:43:22;;;;;;;;;;;18.80;48.60;;;;;;7786310;22;19923;-73
2023/02/09 00:46:22;;;;;;;;;;;18.80;48.60;;;;;;7786729;22;19907;-74
2023/02/09 00:49:23;;;;;;;;;;;18.80;48.60;;;;;;7786183;22;19903;-74
2023/02/09 00:52:24;;;;;;;;;;;18.80;48.50;;;;;;7786570;22;20327;-73
2023/02/09 00:55:24;;;;;;;;;;;18.80;48.60;;;;;;7778886;22;19972;-73
2023/02/09 00:58:25;;;;;;;;;;;18.80;48.70;;;;;;7786066;22;19903;-74
2023/02/09 01:01:25;;;;;;;;;;;18.80;48.70;;;;;;7785574;22;19929;-74
2023/02/09 01:04:26;;;;;;;;;;;18.80;48.70;;;;;;7786155;22;19903;-73
2023/02/09 01:07:27;;;;;;;;;;;18.80;48.70;;;;;;7785713;22;20247;-73
2023/02/09 01:10:27;;;;;;;;;;;18.80;48.80;;;;;;7776223;22;19903;-73
2023/02/09 01:13:28;;;;;;;;;;;18.80;48.90;;;;;;7785414;22;19982;-73
2023/02/09 01:16:30;;;;;;;;;;;18.80;49.30;;;;;;7785790;22;19922;-74
2023/02/09 01:19:30;;;;;;;;;;;18.80;48.60;;;;;;7785539;22;19929;-75
2023/02/09 01:22:31;;;;;;;;;;;18.80;48.60;;;;;;7786007;22;19904;-73
2023/02/09 01:25:31;;;;;;;;;;;18.80;48.70;;;;;;7785976;22;19929;-74
2023/02/09 01:28:32;;;;;;;;;;;18.80;48.70;;;;;;7786323;22;20220;-72
2023/02/09 01:31:34;;;;;;;;;;;18.80;48.60;;;;;;7785043;22;19910;-73
2023/02/09 01:34:35;;;;;;;;;;;18.80;48.60;;;;;;7786411;22;19911;-73
2023/02/09 01:37:35;;;;;;;;;;;18.80;48.60;;;;;;7758899;22;19912;-73
2023/02/09 01:40:36;;;;;;;;;;;18.80;48.60;;;;;;7786007;22;20066;-73
2023/02/09 01:43:48;;;;;;;;;;;18.80;48.60;;;;;;7757963;22;19942;-73
2023/02/09 01:46:49;;;;;;;;;;;18.80;48.70;;;;;;7785378;22;19907;-73
2023/02/09 01:49:50;;;;;;;;;;;18.80;48.80;;;;;;7786063;22;19904;-73
2023/02/09 01:52:51;;;;;;;;;;;18.80;48.80;;;;;;7785883;22;19903;-73
2023/02/09 01:55:54;;;;;;;;;;;18.80;48.70;;;;;;7784812;22;20331;-73
2023/02/09 01:58:55;;;;;;;;;;;18.80;48.70;;;;;;7785472;22;19907;-74
2023/02/09 02:01:55;;;;;;;;;;;18.80;48.70;;;;;;7780962;22;19907;-73
2023/02/09 02:04:56;;;;;;;;;;;18.80;48.80;;;;;;7785269;22;19911;-73
2023/02/09 02:08:00;;;;;;;;;;;18.80;48.80;;;;;;7786205;22;20203;-73
2023/02/09 02:11:01;;;;;;;;;;;18.80;48.70;;;;;;7784711;22;20216;-74
2023/02/09 02:14:02;;;;;;;;;;;18.80;48.80;;;;;;7785644;22;19911;-73
2023/02/09 02:17:11;;;;;;;;;;;18.80;48.90;;;;;;7785385;22;19915;-73
2023/02/09 02:20:32;;;;;;;;;;;18.80;48.70;;;;;;7785916;22;19909;-73
2023/02/09 02:23:52;;;;;;;;;;;18.80;48.90;;;;;;7785333;22;19914;-73
2023/02/09 02:27:12;;;;;;;;;;;18.80;48.90;;;;;;7758263;22;19956;-72
2023/02/09 02:30:27;;;;;;;;;;;18.80;48.70;;;;;;7785178;22;19903;-73
2023/02/09 02:33:32;;;;;;;;;;;18.70;48.70;;;;;;7785594;22;19903;-74
2023/02/09 02:36:36;;;;;;;;;;;18.80;48.90;;;;;;7785178;22;19911;-73
2023/02/09 02:39:43;;;;;;;;;;;18.80;48.90;;;;;;7785354;22;20263;-73
2023/02/09 02:42:58;;;;;;;;;;;18.80;48.80;;;;;;7785327;22;19965;-73
2023/02/09 02:46:01;;;;;;;;;;;18.80;48.80;;;;;;7784863;22;19919;-72
2023/02/09 02:49:07;;;;;;;;;;;18.80;48.70;;;;;;7785418;22;20414;-74
2023/02/09 02:52:09;;;;;;;;;;;18.80;48.90;;;;;;7784997;22;19912;-73
2023/02/09 02:55:12;;;;;;;;;;;18.80;48.80;;;;;;7785548;22;20018;-73
2023/02/09 02:58:14;;;;;;;;;;;18.80;48.80;;;;;;7785345;22;20212;-73
2023/02/09 03:01:16;;;;;;;;;;;18.80;48.90;;;;;;7785161;22;19929;-73
2023/02/09 03:04:17;;;;;;;;;;;18.80;48.80;;;;;;7785220;22;20252;-74
2023/02/09 03:07:17;;;;;;;;;;;18.80;49.50;;;;;;7786902;22;20228;-73
2023/02/09 03:10:33;;;;;;;;;;;18.80;48.80;;;;;;7787687;22;19909;-74
2023/02/09 03:13:46;;;;;;;;;;;18.80;48.80;;;;;;7787134;22;19910;-73
2023/02/09 03:16:53;;;;;;;;;;;18.80;48.80;;;;;;7787635;22;19920;-73
2023/02/09 03:20:07;;;;;;;;;;;18.80;48.80;;;;;;7787257;22;19911;-73
2023/02/09 03:23:10;;;;;;;;;;;18.80;48.70;;;;;;7786993;22;19943;-73
2023/02/09 03:26:17;;;;;;;;;;;18.80;48.80;;;;;;7787395;22;19907;-73
2023/02/09 03:29:18;;;;;;;;;;;18.80;48.80;;;;;;7787184;22;20290;-73
2023/02/09 03:32:19;;;;;;;;;;;18.80;48.80;;;;;;7787024;22;19961;-73
2023/02/09 03:35:22;;;;;;;;;;;18.80;48.80;;;;;;7752518;22;19907;-73
2023/02/09 03:38:23;;;;;;;;;;;18.70;48.70;;;;;;7787508;22;20378;-73
2023/02/09 03:41:24;;;;;;;;;;;18.80;48.80;;;;;;7786885;22;20032;-73
2023/02/09 03:44:27;;;;;;;;;;;18.80;48.70;;;;;;7786762;22;20127;-73
2023/02/09 03:47:29;;;;;;;;;;;18.80;48.80;;;;;;7781287;22;19984;-73
2023/02/09 03:50:31;;;;;;;;;;;18.80;48.80;;;;;;7782910;22;19903;-73
2023/02/09 03:53:37;;;;;;;;;;;18.80;48.80;;;;;;7786926;22;19934;-74
2023/02/09 03:56:38;;;;;;;;;;;18.80;48.70;;;;;;7786248;22;19915;-73
2023/02/09 03:59:38;;;;;;;;;;;18.80;48.70;;;;;;7787311;22;20291;-73
2023/02/09 04:02:39;;;;;;;;;;;18.80;48.70;;;;;;7779240;22;19929;-73
2023/02/09 04:05:39;;;;;;;;;;;18.80;48.70;;;;;;7786365;22;19907;-73
2023/02/09 04:08:41;;;;;;;;;;;18.80;48.70;;;;;;7787335;22;19908;-73
2023/02/09 04:11:42;;;;;;;;;;;18.70;48.70;;;;;;7786746;22;19904;-73
2023/02/09 04:14:42;;;;;;;;;;;18.80;48.70;;;;;;7786491;22;20274;-74
2023/02/09 04:17:43;;;;;;;;;;;18.80;48.70;;;;;;7786930;22;19915;-73
2023/02/09 04:20:44;;;;;;;;;;;18.80;48.70;;;;;;7786504;22;19911;-73
2023/02/09 04:23:44;;;;;;;;;;;18.80;48.70;;;;;;7786420;22;20085;-73
2023/02/09 04:26:45;;;;;;;;;;;18.80;48.70;;;;;;7786442;22;19903;-74
2023/02/09 04:29:45;;;;;;;;;;;18.80;48.70;;;;;;7786988;22;19904;-73
2023/02/09 04:32:46;;;;;;;;;;;18.80;48.70;;;;;;7786251;22;19955;-73
2023/02/09 04:35:47;;;;;;;;;;;18.80;48.70;;;;;;7786750;22;19921;-73
2023/02/09 04:38:48;;;;;;;;;;;18.80;48.70;;;;;;7786460;22;19934;-73
2023/02/09 04:41:49;;;;;;;;;;;18.80;48.70;;;;;;7786484;22;19995;-73
2023/02/09 04:44:49;;;;;;;;;;;18.80;48.70;;;;;;7786186;22;19988;-72
2023/02/09 04:47:49;;;;;;;;;;;18.80;49.40;;;;;;7786351;22;19903;-73
2023/02/09 04:50:51;;;;;;;;;;;18.80;48.60;;;;;;7786747;22;20239;-73
2023/02/09 04:53:51;;;;;;;;;;;18.80;48.70;;;;;;7785671;22;19935;-74
2023/02/09 04:59:33;;;;;;;;;;;18.80;48.60;;;;;;7786017;22;20037;-73
2023/02/09 05:00:40;;;;;;;;;;;18.80;48.70;;;;;;7786031;22;19915;-73
2023/02/09 05:03:41;;;;;;;;;;;18.80;48.70;;;;;;7780640;22;19907;-73
2023/02/09 05:06:41;;;;;;;;;;;18.80;48.70;;;;;;7785758;22;19904;-73
2023/02/09 05:09:42;;;;;;;;;;;18.80;48.70;;;;;;7785866;22;19907;-73
2023/02/09 05:12:42;;;;;;;;;;;18.80;48.40;;;;;;7785889;22;19973;-73
2023/02/09 05:15:43;;;;;;;;;;;18.80;48.60;;;;;;7785838;22;19911;-74
2023/02/09 05:18:44;;;;;;;;;;;18.80;48.60;;;;;;7786092;22;19957;-73
2023/02/09 05:21:44;;;;;;;;;;;18.80;48.70;;;;;;7785911;22;20273;-73
2023/02/09 05:24:45;;;;;;;;;;;18.80;48.70;;;;;;7786263;22;20318;-74
2023/02/09 05:27:45;;;;;;;;;;;18.80;48.70;;;;;;7786104;22;19990;-74
2023/02/09 05:30:46;;;;;;;;;;;18.80;48.80;;;;;;7785732;22;19904;-74
2023/02/09 05:33:47;;;;;;;;;;;18.80;48.80;;;;;;7785577;22;19912;-73
2023/02/09 05:36:47;;;;;;;;;;;18.80;48.80;;;;;;7785674;22;20324;-74
2023/02/09 05:39:49;;;;;;;;;;;18.80;48.80;;;;;;7785889;22;19904;-73
2023/02/09 05:42:50;;;;;;;;;;;18.80;48.80;;;;;;7786191;22;19949;-73
2023/02/09 05:45:50;;;;;;;;;;;18.80;48.90;;;;;;7784781;22;20334;-73
2023/02/09 05:48:51;;;;;;;;;;;18.80;48.90;;;;;;7785679;22;19931;-74
2023/02/09 05:51:51;;;;;;;;;;;18.80;48.90;;;;;;7785396;22;19903;-73
2023/02/09 05:54:52;;;;;;;;;;;18.80;48.90;;;;;;7785150;22;19903;-73
2023/02/09 05:57:52;;;;;;;;;;;18.80;48.90;;;;;;7784802;22;19911;-74
2023/02/09 06:00:53;;;;;;;;;;;18.80;48.90;;;;;;7784056;22;19903;-73
2023/02/09 06:03:53;;;;;;;;;;;18.80;49.00;;;;;;7785181;22;19914;-74
2023/02/09 06:06:54;;;;;;;;;;;18.80;49.00;;;;;;7785318;22;19926;-73
2023/02/09 06:09:54;;;;;;;;;;;18.80;49.00;;;;;;7785485;22;19903;-71
2023/02/09 06:12:55;;;;;;;;;;;18.80;49.00;;;;;;7785233;22;19923;-73
2023/02/09 06:15:55;;;;;;;;;;;18.80;49.00;;;;;;7785118;22;19918;-73
2023/02/09 06:18:56;;;;;;;;;;;18.80;49.00;;;;;;7785407;22;19950;-73
2023/02/09 06:21:56;;;;;;;;;;;18.80;49.00;;;;;;7785541;22;19914;-73
2023/02/09 06:24:57;;;;;;;;;;;18.80;49.00;;;;;;7785604;22;19914;-73
2023/02/09 06:27:57;;;;;;;;;;;18.80;49.00;;;;;;7785130;22;19910;-73
2023/02/09 06:30:58;;;;;;;;;;;18.80;49.00;;;;;;7776278;22;19903;-73
2023/02/09 06:33:58;;;;;;;;;;;18.80;49.00;;;;;;7785128;22;19910;-73
2023/02/09 06:36:59;;;;;;;;;;;18.80;49.00;;;;;;7785669;22;19916;-73
2023/02/09 06:39:59;;;;;;;;;;;18.80;49.00;;;;;;7784980;22;19907;-73
2023/02/09 06:43:00;;;;;;;;;;;18.80;49.70;;;;;;7788006;22;19914;-73
2023/02/09 06:46:04;;;;;;;;;;;18.80;49.00;;;;;;7787948;22;19964;-73
2023/02/09 06:49:04;;;;;;;;;;;18.80;49.10;;;;;;7787635;22;19914;-74
2023/02/09 06:52:05;;;;;;;;;;;18.80;49.10;;;;;;7788215;22;19907;-74
2023/02/09 06:55:05;;;;;;;;;;;18.80;49.10;;;;;;7782770;22;19923;-73
2023/02/09 06:58:06;;;;;;;;;;;18.80;49.10;;;;;;7787910;22;19903;-74
2023/02/09 07:01:08;;;;;;;;;;;18.80;49.10;;;;;;7789113;22;19911;-73
2023/02/09 07:04:08;;;;;;;;;;;18.80;49.10;;;;;;7789988;22;20244;-73
2023/02/09 07:07:09;;;;;;;;;;;18.80;49.10;;;;;;7790072;22;19903;-73
2023/02/09 07:10:10;;;;;;;;;;;18.80;49.10;;;;;;7782234;22;19918;-73
2023/02/09 07:13:11;;;;;;;;;;;18.80;49.10;;;;;;7787415;22;19931;-73
2023/02/09 07:16:11;;;;;;;;;;;18.80;49.10;;;;;;7788628;22;20361;-73
2023/02/09 07:19:12;;;;;;;;;;;18.80;49.10;;;;;;7788576;22;19903;-73
2023/02/09 07:22:12;;;;;;;;;;;18.80;49.10;;;;;;7788911;22;19960;-73
2023/02/09 07:25:13;;;;;;;;;;;18.80;49.10;;;;;;7779422;22;19914;-73
2023/02/09 07:28:13;;;;;;;;;;;18.80;49.20;;;;;;7789007;22;19903;-73
2023/02/09 07:31:14;;;;;;;;;;;18.80;49.10;;;;;;7761955;22;19934;-73
2023/02/09 07:34:15;;;;;;;;;;;18.80;49.10;;;;;;7788332;22;19913;-73
2023/02/09 07:37:16;;;;;;;;;;;18.80;49.10;;;;;;7788899;22;19945;-73
2023/02/09 07:40:16;;;;;;;;;;;18.80;49.10;;;;;;7789096;22;19969;-73
2023/02/09 07:43:17;;;;;;;;;;;18.80;49.20;;;;;;7780938;22;20298;-73
2023/02/09 07:46:19;;;;;;;;;;;18.80;49.10;;;;;;7784044;22;19903;-73
2023/02/09 07:49:20;;;;;;;;;;;18.80;49.20;;;;;;7779421;22;19942;-73
2023/02/09 07:52:20;;;;;;;;;;;18.80;49.10;;;;;;7787834;22;19982;-73
2023/02/09 07:55:21;;;;;;;;;;;18.80;49.10;;;;;;7788855;22;19907;-73
2023/02/09 07:58:21;;;;;;;;;;;18.80;49.20;;;;;;7788423;22;19934;-72
2023/02/09 08:01:24;;;;;;;;;;;18.80;49.20;;;;;;7786763;22;19907;-73
2023/02/09 08:04:24;;;;;;;;;;;18.90;49.10;;;;;;7788136;22;19903;-73
2023/02/09 08:07:26;;;;;;;;;;;18.90;49.00;;;;;;7782286;22;19915;-73
2023/02/09 08:10:26;;;;;;;;;;;19.00;49.00;;;;;;7761068;22;19907;-73
2023/02/09 08:13:28;;;;;;;;;;;19.00;48.80;;;;;;7778051;22;19960;-72
2023/02/09 08:16:30;;;;;;;;;;;19.00;48.80;;;;;;7779387;22;19916;-71
2023/02/09 08:19:30;;;;;;;;;;;19.00;49.20;;;;;;7787193;22;20234;-72
2023/02/09 08:22:32;;;;;;;;;;;19.10;48.70;;;;;;7788169;22;19909;-72
2023/02/09 08:25:33;;;;;;;;;;;19.20;49.00;;;;;;7786942;22;19907;-70
2023/02/09 08:28:34;;;;;;;;;;;19.20;48.50;;;;;;7787807;22;19915;-72
2023/02/09 08:31:35;;;;;;;;;;;19.20;48.50;;;;;;7787909;22;19934;-72
2023/02/09 08:34:35;;;;;;;;;;;19.10;48.50;;;;;;7788086;22;20212;-73
2023/02/09 08:37:36;;;;;;;;;;;19.20;48.70;;;;;;7787597;22;19919;-72
2023/02/09 08:40:40;;;;;;;;;;;19.20;49.00;;;;;;7788090;22;20254;-73
2023/02/09 08:43:40;;;;;;;;;;;19.20;48.70;;;;;;7786148;22;19920;-73
2023/02/09 08:46:41;;;;;;;;;;;19.10;48.50;;;;;;7787872;22;19907;-72
2023/02/09 08:49:41;;;;;;;;;;;19.20;48.60;;;;;;7773683;22;19907;-73
2023/02/09 08:52:42;;;;;;;;;;;19.20;48.70;;;;;;7787490;22;20298;-72
2023/02/09 08:55:42;;;;;;;;;;;19.10;48.50;;;;;;7777916;22;20223;-73
2023/02/09 08:58:43;;;;;;;;;;;19.20;48.70;;;;;;7777170;22;20006;-72
2023/02/09 09:01:43;;;;;;;;;;;19.20;48.60;;;;;;7777540;22;20212;-72
2023/02/09 09:04:44;;;;;;;;;;;19.20;48.60;;;;;;7787102;22;19903;-72
2023/02/09 09:07:44;;;;;;;;;;;19.20;48.60;;;;;;7778953;22;19910;-72
2023/02/09 09:10:45;;;;;;;;;;;19.20;48.50;;;;;;7787542;22;19907;-72
2023/02/09 09:13:45;;;;;;;;;;;19.20;48.50;;;;;;7777070;22;19918;-72
2023/02/09 09:16:46;;;;;;;;;;;19.20;48.60;;;;;;7787294;22;20239;-72
2023/02/09 09:19:46;;;;;;;;;;;19.20;48.60;;;;;;7787319;22;20434;-72
2023/02/09 09:22:47;;;;;;;;;;;19.20;48.70;;;;;;7787221;22;19912;-72
2023/02/09 09:25:47;;;;;;;;;;;19.20;48.10;;;;;;7782366;22;19911;-73
2023/02/09 09:28:49;;;;;;;;;;;19.10;45.90;;;;;;7786578;22;19915;-73
2023/02/09 09:31:49;;;;;;;;;;;19.10;45.00;;;;;;7787303;22;20220;-72
2023/02/09 09:34:54;;;;;;;;;;;19.20;45.30;;;;;;7787532;22;19903;-73
2023/02/09 09:37:56;;;;;;;;;;;19.20;45.50;;;;;;7787672;22;19934;-73
2023/02/09 09:40:56;;;;;;;;;;;19.20;45.70;;;;;;7780745;22;19983;-73
2023/02/09 09:43:57;;;;;;;;;;;19.20;46.90;;;;;;7786997;22;19919;-72
2023/02/09 09:47:01;;;;;;;;;;;19.20;46.20;;;;;;7787392;22;20268;-73
2023/02/09 09:50:14;;;;;;;;;;;19.20;46.20;;;;;;7787802;22;19978;-72
2023/02/09 09:53:30;;;;;;;;;;;19.20;47.80;;;;;;7787028;22;19910;-72
2023/02/09 09:56:31;;;;;;;;;;;19.10;47.20;;;;;;7787221;22;19918;-73
2023/02/09 09:59:37;;;;;;;;;;;19.20;45.80;;;;;;7779823;22;19904;-73
2023/02/09 10:02:38;;;;;;;;;;;19.20;44.90;;;;;;7787040;22;19929;-73
2023/02/09 10:05:39;;;;;;;;;;;19.20;44.80;;;;;;7786608;22;19930;-75
2023/02/09 10:08:45;;;;;;;;;;;19.30;46.00;;;;;;7778151;22;19911;-75
2023/02/09 10:12:03;;;;;;;;;;;19.30;45.80;;;;;;7788057;22;19953;-76
2023/02/09 10:15:23;;;;;;;;;;;19.30;45.70;;;;;;7759675;22;19903;-75
2023/02/09 10:18:24;;;;;;;;;;;19.30;45.50;;;;;;7789855;22;19915;-74
2023/02/09 10:21:27;;;;;;;;;;;19.30;45.60;;;;;;7784643;22;19904;-75
2023/02/09 10:24:29;;;;;;;;;;;19.30;45.80;;;;;;7789016;22;19911;-76
2023/02/09 10:27:30;;;;;;;;;;;19.30;45.20;;;;;;7789829;22;19907;-74
2023/02/09 10:30:30;;;;;;;;;;;19.30;45.60;;;;;;7779548;22;19938;-75
2023/02/09 10:33:39;;;;;;;;;;;19.30;45.60;;;;;;7780094;22;20375;-75
2023/02/09 10:36:49;;;;;;;;;;;19.30;45.80;;;;;;7789175;22;19911;-75
2023/02/09 10:39:55;;;;;;;;;;;19.30;45.70;;;;;;7784923;22;19994;-75
2023/02/09 10:42:57;;;;;;;;;;;19.30;45.80;;;;;;7790088;22;19910;-76
2023/02/09 10:45:59;;;;;;;;;;;19.30;46.10;;;;;;7788404;22;20164;-76
2023/02/09 10:48:59;;;;;;;;;;;19.20;46.10;;;;;;7776782;22;19910;-76
2023/02/09 10:52:12;;;;;;;;;;;19.20;46.30;;;;;;7788907;22;19914;-75
2023/02/09 10:55:20;;;;;;;;;;;19.20;46.40;;;;;;7789257;22;19930;-76
2023/02/09 10:58:23;;;;;;;;;;;19.20;46.60;;;;;;7779868;22;19903;-76
2023/02/09 11:01:25;;;;;;;;;;;19.20;46.70;;;;;;7788924;22;19903;-75
2023/02/09 11:04:35;;;;;;;;;;;19.20;46.80;;;;;;7784421;22;19907;-75
2023/02/09 11:07:37;;;;;;;;;;;19.20;47.20;;;;;;7672426;23;19923;-76
2023/02/09 11:10:40;;;;;;;;;;;19.10;47.20;;;;;;7672060;23;20052;-75
2023/02/09 11:13:41;;;;;;;;;;;19.20;47.30;;;;;;7672557;23;20236;-75
2023/02/09 11:17:00;;;;;;;;;;;19.20;47.30;;;;;;7672090;23;19912;-74
2023/02/09 11:20:14;;;;;;;;;;;19.20;47.30;;;;;;7668382;23;19904;-75
2023/02/09 11:23:35;;;;;;;;;;;19.20;47.40;;;;;;7671934;23;19951;-75
2023/02/09 11:26:52;;;;;;;;;;;19.20;47.30;;;;;;7602637;23;19906;-75
2023/02/09 11:29:55;;;;;;;;;;;19.10;47.20;;;;;;7663789;23;19905;-75
2023/02/09 11:32:55;;;;;;;;;;;19.10;47.30;;;;;;7643780;23;20287;-75
2023/02/09 11:36:11;;;;;;;;;;;19.20;47.30;;;;;;7663157;23;19916;-75
2023/02/09 11:39:26;;;;;;;;;;;19.20;47.30;;;;;;7765125;22;19911;-75
2023/02/09 11:42:45;;;;;;;;;;;19.20;47.20;;;;;;7634486;23;19908;-76
2023/02/09 11:45:46;;;;;;;;;;;19.10;47.20;;;;;;7634790;23;20000;-76
2023/02/09 11:48:53;;;;;;;;;;;19.10;48.00;;;;;;7634969;23;19908;-76
2023/02/09 11:51:55;;;;;;;;;;;19.10;47.30;;;;;;7634819;23;20395;-76
2023/02/09 11:55:00;;;;;;;;;;;19.10;47.40;;;;;;7635214;23;19999;-75
2023/02/09 11:58:10;;;;;;;;;;;19.10;47.40;;;;;;7625966;23;19913;-75
2023/02/09 12:01:27;;;;;;;;;;;19.10;47.40;;;;;;7634891;23;20320;-75
2023/02/09 12:04:31;;;;;;;;;;;19.10;47.50;;;;;;7635239;23;19979;-75
2023/02/09 12:07:50;;;;;;;;;;;19.10;47.60;;;;;;7630380;23;20250;-75
2023/02/09 12:11:09;;;;;;;;;;;19.10;47.50;;;;;;7630928;23;20309;-76
2023/02/09 12:14:34;;;;;;;;;;;19.10;47.40;;;;;;7760482;22;19904;-76
2023/02/09 12:17:37;;;;;;;;;;;19.10;47.60;;;;;;7787365;22;19998;-76
2023/02/09 12:20:40;;;;;;;;;;;19.10;47.60;;;;;;7788302;22;19911;-76
2023/02/09 12:23:43;;;;;;;;;;;19.10;47.40;;;;;;7787803;22;19903;-76
2023/02/09 12:26:52;;;;;;;;;;;19.10;47.40;;;;;;7788311;22;19903;-76
2023/02/09 12:29:53;;;;;;;;;;;19.10;47.50;;;;;;7634454;23;19905;-75
2023/02/09 12:33:13;;;;;;;;;;;19.10;47.50;;;;;;7634205;23;20283;-75
2023/02/09 12:36:14;;;;;;;;;;;19.10;47.50;;;;;;7560921;23;20008;-76
2023/02/09 12:39:23;;;;;;;;;;;19.10;47.60;;;;;;7561098;23;19913;-75
2023/02/09 12:42:25;;;;;;;;;;;19.10;47.60;;;;;;7556300;23;20346;-75
2023/02/09 12:45:29;;;;;;;;;;;19.10;47.70;;;;;;7561177;23;20420;-75
2023/02/09 12:48:29;;;;;;;;;;;19.10;47.70;;;;;;7561147;23;19960;-75
2023/02/09 12:51:36;;;;;;;;;;;19.10;47.70;;;;;;7561466;23;19984;-75
2023/02/09 12:54:55;;;;;;;;;;;19.10;47.80;;;;;;7561819;23;20418;-75
2023/02/09 12:57:56;;;;;;;;;;;19.10;47.80;;;;;;7560998;23;19957;-76
2023/02/09 13:00:56;;;;;;;;;;;19.10;45.80;;;;;;7626009;23;20239;-76
2023/02/09 13:03:59;;;;;;;;;;;19.10;45.50;;;;;;7664767;23;19908;-76
2023/02/09 13:07:01;;;;;;;;;;;19.10;45.80;;;;;;7718276;22;19912;-76
2023/02/09 13:10:24;;;;;;;;;;;19.20;45.80;;;;;;7748576;22;19904;-75
2023/02/09 13:13:31;;;;;;;;;;;19.20;46.10;;;;;;7718632;22;19904;-76
2023/02/09 13:16:31;;;;;;;;;;;19.10;46.30;;;;;;7748376;22;20243;-76
2023/02/09 13:19:38;;;;;;;;;;;19.10;46.70;;;;;;7748321;22;19908;-75
2023/02/09 13:22:57;;;;;;;;;;;19.10;46.90;;;;;;7748928;22;19904;-76
2023/02/09 13:26:12;;;;;;;;;;;19.10;46.80;;;;;;7747907;22;19907;-76
2023/02/09 13:29:18;;;;;;;;;;;19.10;47.10;;;;;;7748501;22;19974;-76
2023/02/09 13:32:28;;;;;;;;;;;19.10;47.40;;;;;;7749074;22;19975;-75
2023/02/09 13:35:34;;;;;;;;;;;19.10;47.20;;;;;;7748944;22;19926;-76
2023/02/09 13:38:34;;;;;;;;;;;19.10;47.30;;;;;;7743659;23;19967;-76
2023/02/09 13:41:38;;;;;;;;;;;19.10;47.30;;;;;;7748506;22;20366;-76
2023/02/09 13:44:42;;;;;;;;;;;19.10;47.20;;;;;;7747511;22;19924;-76
2023/02/09 13:47:44;;;;;;;;;;;19.10;47.10;;;;;;7748913;22;19908;-76
2023/02/09 13:50:47;;;;;;;;;;;19.10;47.20;;;;;;7668899;23;19904;-76
2023/02/09 13:53:58;;;;;;;;;;;19.10;47.30;;;;;;7670728;23;20287;-76
2023/02/09 13:57:00;;;;;;;;;;;19.10;47.40;;;;;;7663004;23;19997;-76
2023/02/09 14:00:21;;;;;;;;;;;19.10;47.40;;;;;;7669560;23;19908;-77
2023/02/09 14:03:23;;;;;;;;;;;19.10;47.50;;;;;;7668900;23;20349;-76
2023/02/09 14:06:44;;;;;;;;;;;19.10;47.60;;;;;;7656583;23;19908;-75
2023/02/09 14:09:48;;;;;;;;;;;19.10;48.00;;;;;;7668144;23;19905;-75
2023/02/09 14:13:03;;;;;;;;;;;19.10;48.10;;;;;;7669305;23;19916;-75
2023/02/09 14:16:05;;;;;;;;;;;19.10;48.10;;;;;;7668470;23;19999;-75
2023/02/09 14:19:22;;;;;;;;;;;19.10;48.80;;;;;;7669440;23;20379;-75
2023/02/09 14:22:25;;;;;;;;;;;19.10;48.10;;;;;;7617824;23;19932;-75
2023/02/09 14:25:27;;;;;;;;;;;19.10;48.10;;;;;;7624494;23;19904;-76
2023/02/09 14:28:27;;;;;;;;;;;19.10;48.10;;;;;;7630313;23;19988;-75
2023/02/09 14:31:28;;;;;;;;;;;19.10;48.10;;;;;;7630659;23;20344;-74
2023/02/09 14:34:30;;;;;;;;;;;19.10;48.10;;;;;;7608082;23;19905;-75
2023/02/09 14:37:31;;;;;;;;;;;19.10;48.10;;;;;;7632512;23;19913;-75
2023/02/09 14:40:36;;;;;;;;;;;19.10;48.20;;;;;;7629747;23;19916;-76
2023/02/09 14:43:36;;;;;;;;;;;19.10;48.20;;;;;;7627558;23;20415;-76
2023/02/09 14:46:46;;;;;;;;;;;19.00;48.10;;;;;;7628989;23;19983;-75
2023/02/09 14:49:46;;;;;;;;;;;19.00;48.10;;;;;;7631277;23;19905;-76
2023/02/09 14:52:49;;;;;;;;;;;19.00;48.20;;;;;;7663318;23;20423;-75
2023/02/09 14:55:50;;;;;;;;;;;19.00;48.20;;;;;;7704720;23;20320;-75
2023/02/09 14:58:50;;;;;;;;;;;19.00;48.50;;;;;;7710056;23;19911;-75
2023/02/09 15:01:52;;;;;;;;;;;19.00;47.50;;;;;;7710037;23;20371;-75
2023/02/09 15:04:53;;;;;;;;;;;19.00;47.70;;;;;;7712994;23;19904;-76
2023/02/09 15:07:57;;;;;;;;;;;19.00;47.90;;;;;;7706992;23;19915;-76
2023/02/09 15:10:59;;;;;;;;;;;19.00;48.00;;;;;;7711794;23;19903;-75
2023/02/09 15:14:02;;;;;;;;;;;19.00;48.00;;;;;;7707875;23;20232;-74
2023/02/09 15:17:09;;;;;;;;;;;19.00;48.70;;;;;;7711881;23;19922;-76
2023/02/09 15:20:14;;;;;;;;;;;19.00;48.00;;;;;;7712703;23;19904;-75
2023/02/09 15:23:15;;;;;;;;;;;19.00;47.90;;;;;;7709274;23;19982;-76
2023/02/09 15:26:16;;;;;;;;;;;19.00;48.10;;;;;;7713454;23;19904;-76
2023/02/09 15:29:16;;;;;;;;;;;19.00;48.10;;;;;;7711735;23;19907;-76
2023/02/09 15:32:18;;;;;;;;;;;19.00;48.00;;;;;;7712496;23;19908;-75
2023/02/09 15:35:20;;;;;;;;;;;19.00;48.10;;;;;;7709106;23;19904;-76
2023/02/09 15:38:20;;;;;;;;;;;19.00;48.00;;;;;;7706537;23;20097;-75
2023/02/09 15:51:20;;;;;;;;;;;19.00;48.10;;;;;;7522196;22;19967;-75
2023/02/09 15:54:25;;;;;;;;;;;19.00;48.20;;;;;;7525122;23;19910;-75
2023/02/09 15:57:26;;;;;;;;;;;19.00;48.00;;;;;;7519464;23;19918;-75
2023/02/09 16:00:28;;;;;;;;;;;19.00;48.20;;;;;;7499438;23;19912;-76
2023/02/09 16:03:30;;;;;;;;;;;19.00;48.10;;;;;;7525748;23;20594;-75
2023/02/09 16:06:32;;;;;;;;;;;19.00;48.00;;;;;;7525499;23;19960;-75
2023/02/09 16:09:33;;;;;;;;;;;19.00;48.20;;;;;;7500034;23;19910;-75
2023/02/09 16:12:34;;;;;;;;;;;19.00;48.20;;;;;;7525283;23;20293;-75
2023/02/09 16:15:34;;;;;;;;;;;19.00;48.20;;;;;;7525050;23;19905;-76
2023/02/09 16:18:35;;;;;;;;;;;19.00;48.30;;;;;;7519676;23;19981;-75
2023/02/09 16:21:35;;;;;;;;;;;19.00;48.30;;;;;;7521037;23;19916;-75
2023/02/09 16:24:38;;;;;;;;;;;19.00;48.30;;;;;;7524707;23;19937;-75
2023/02/09 16:27:39;;;;;;;;;;;19.00;49.00;;;;;;7525527;23;19985;-75
2023/02/09 16:30:52;;;;;;;;;;;19.00;49.00;;;;;;7524229;23;20537;-75
2023/02/09 16:33:53;;;;;;;;;;;19.00;48.40;;;;;;7525091;23;19910;-75
2023/02/09 16:36:53;;;;;;;;;;;19.00;48.40;;;;;;7524879;23;20328;-75
2023/02/09 16:39:55;;;;;;;;;;;19.00;48.40;;;;;;7525222;23;19948;-75
2023/02/09 16:42:57;;;;;;;;;;;19.00;48.40;;;;;;7528903;23;19905;-75
2023/02/09 16:45:58;;;;;;;;;;;19.00;48.40;;;;;;7524815;23;19906;-76
2023/02/09 16:48:59;;;;;;;;;;;19.00;48.50;;;;;;7524771;23;19917;-75
2023/02/09 16:52:02;;;;;;;;;;;19.00;48.50;;;;;;7521763;23;19930;-75
2023/02/09 16:55:04;;;;;;;;;;;19.00;48.50;;;;;;7525382;23;19905;-75
2023/02/09 16:58:04;;;;;;;;;;;19.00;48.50;;;;;;7525700;23;20328;-75
2023/02/09 17:01:33;;;;;;;;;;;19.00;48.50;;;;;;7525705;23;19906;-75
2023/02/09 17:04:36;;;;;;;;;;;19.00;48.50;;;;;;7526950;23;19910;-75
2023/02/09 17:07:37;;;;;;;;;;;19.00;48.50;;;;;;7500652;23;19928;-75
2023/02/09 17:10:38;;;;;;;;;;;19.00;48.50;;;;;;7525402;23;19906;-75
2023/02/09 17:13:38;;;;;;;;;;;19.00;48.60;;;;;;7525849;23;21119;-76
2023/02/09 17:16:42;;;;;;;;;;;19.00;48.50;;;;;;7525590;23;19925;-75
2023/02/09 17:19:42;;;;;;;;;;;19.00;48.60;;;;;;7524340;23;19916;-75
2023/02/09 17:22:43;;;;;;;;;;;19.00;48.60;;;;;;7523756;23;19905;-74
2023/02/09 17:25:44;;;;;;;;;;;19.00;49.20;;;;;;7526360;23;20221;-74
2023/02/09 17:28:45;;;;;;;;;;;19.00;48.30;;;;;;7519254;23;19913;-74
2023/02/09 17:31:45;;;;;;;;;;;19.00;48.30;;;;;;7517257;23;19906;-74
2023/02/09 17:34:46;;;;;;;;;;;19.00;48.20;;;;;;7524070;23;19959;-75
2023/02/09 17:37:47;;;;;;;;;;;19.00;48.10;;;;;;7524228;23;19914;-75
2023/02/09 17:40:48;;;;;;;;;;;19.00;48.60;;;;;;7518278;23;19913;-75
2023/02/09 17:43:49;;;;;;;;;;;19.00;47.90;;;;;;7523615;23;19909;-75
2023/02/09 17:46:50;;;;;;;;;;;19.00;47.60;;;;;;7524422;23;19936;-75
2023/02/09 17:49:50;;;;;;;;;;;19.00;47.50;;;;;;7522837;23;19921;-75
2023/02/09 17:52:51;;;;;;;;;;;19.00;47.20;;;;;;7523982;23;20560;-75
2023/02/09 17:55:52;;;;;;;;;;;19.00;47.60;;;;;;7523877;23;19914;-75
2023/02/09 17:58:53;;;;;;;;;;;19.00;47.50;;;;;;7522967;23;19914;-75